Time;durP1;ratioP1;P1;durP2;ratioP2;P2;SDS_P1;SDS_P2;PMS_P1;PMS_P2;Temp;Humidity;BMP_temperature;BMP_pressure;BME280_temperature;BME280_humidity;BME280_pressure;Samples;Min_cycle;Max_cycle;Signal;HPM_P1;HPM_P2
2023/05/01 00:00:49;;;;;;;9.00;2.92;;;11.50;99.90;;;;;;5130807;27;20058;-78
2023/05/01 00:03:16;;;;;;;5.43;2.63;;;11.50;99.90;;;;;;5139046;27;20543;-77
2023/05/01 00:05:43;;;;;;;6.28;3.25;;;11.40;99.90;;;;;;5133060;27;20042;-78
2023/05/01 00:08:09;;;;;;;9.15;3.30;;;11.30;99.90;;;;;;5119741;28;20059;-77
2023/05/01 00:10:35;;;;;;;;;;;11.40;99.90;;;;;;5112588;27;20138;-77
2023/05/01 00:13:01;;;;;;;7.90;3.28;;;11.30;99.90;;;;;;5114661;27;20013;-77
2023/05/01 00:15:27;;;;;;;6.90;2.63;;;11.30;99.90;;;;;;5134304;27;20130;-77
2023/05/01 00:17:53;;;;;;;6.25;2.50;;;11.30;99.90;;;;;;5118210;27;20043;-77
2023/05/01 00:20:18;;;;;;;;;;;11.20;99.90;;;;;;5138312;27;20047;-78
2023/05/01 00:22:44;;;;;;;5.20;2.70;;;11.20;99.90;;;;;;5143081;27;19919;-78
2023/05/01 00:25:10;;;;;;;5.22;2.70;;;11.20;99.90;;;;;;5133577;27;20036;-77
2023/05/01 00:27:35;;;;;;;7.25;2.83;;;11.20;99.90;;;;;;5126766;27;20467;-78
2023/05/01 00:30:02;;;;;;;13.52;3.35;;;11.20;99.90;;;;;;5118490;27;20047;-78
2023/05/01 00:32:28;;;;;;;6.25;3.03;;;11.20;99.90;;;;;;5115600;27;20467;-78
2023/05/01 00:34:56;;;;;;;7.93;2.95;;;11.10;99.90;;;;;;5134224;27;20043;-77
2023/05/01 00:37:22;;;;;;;4.95;2.42;;;11.10;99.90;;;;;;5133414;27;20129;-77
2023/05/01 00:39:48;;;;;;;;;;;11.10;99.90;;;;;;5136648;27;20074;-78
2023/05/01 00:42:14;;;;;;;10.55;3.03;;;11.10;99.90;;;;;;5153551;27;19989;-77
2023/05/01 00:44:39;;;;;;;8.00;3.42;;;11.10;99.90;;;;;;5154761;27;20066;-78
2023/05/01 00:47:05;;;;;;;8.63;3.40;;;11.10;99.90;;;;;;5117793;27;20081;-78
2023/05/01 00:49:31;;;;;;;6.43;2.72;;;11.00;99.90;;;;;;5136453;27;20050;-77
2023/05/01 00:51:57;;;;;;;5.25;2.58;;;11.00;99.90;;;;;;5135045;27;20796;-78
2023/05/01 00:54:24;;;;;;;8.65;3.55;;;10.90;99.90;;;;;;5135330;27;20042;-77
2023/05/01 00:56:51;;;;;;;6.53;2.65;;;10.90;99.90;;;;;;5135571;27;20134;-77
2023/05/01 00:59:17;;;;;;;8.13;3.40;;;10.90;99.90;;;;;;5135647;27;20042;-77
2023/05/01 01:01:43;;;;;;;5.95;2.85;;;10.90;99.90;;;;;;5140796;27;20050;-78
2023/05/01 01:04:09;;;;;;;6.22;3.25;;;10.90;99.90;;;;;;5114723;27;20043;-77
2023/05/01 01:06:40;;;;;;;10.15;3.15;;;10.90;99.90;;;;;;5119179;27;20061;-77
2023/05/01 01:09:18;;;;;;;7.43;2.92;;;10.90;99.90;;;;;;5135764;27;20498;-77
2023/05/01 01:11:57;;;;;;;11.45;3.33;;;10.90;99.90;;;;;;5137342;27;20047;-77
2023/05/01 01:14:35;;;;;;;5.57;2.45;;;10.80;99.90;;;;;;5114882;27;20105;-77
2023/05/01 01:17:05;;;;;;;4.82;2.65;;;10.80;99.90;;;;;;5133276;27;20089;-78
2023/05/01 01:20:19;;;;;;;8.82;2.95;;;10.80;99.90;;;;;;5120454;27;20046;-77
2023/05/01 01:22:55;;;;;;;4.72;2.58;;;10.70;99.90;;;;;;5095951;27;20515;-77
2023/05/01 01:25:48;;;;;;;7.65;3.25;;;10.70;99.90;;;;;;5119117;27;20885;-77
2023/05/01 01:28:38;;;;;;;4.72;2.53;;;10.70;99.90;;;;;;5140776;27;20045;-77
2023/05/01 01:31:12;;;;;;;6.70;2.90;;;10.70;99.90;;;;;;5135120;27;20516;-77
2023/05/01 01:34:03;;;;;;;7.22;3.47;;;10.70;99.90;;;;;;5153513;27;20047;-77
2023/05/01 01:36:53;;;;;;;8.93;3.17;;;10.60;99.90;;;;;;5135029;27;20090;-77
2023/05/01 01:39:29;;;;;;;9.55;3.35;;;10.60;99.90;;;;;;5134941;27;20047;-77
2023/05/01 01:41:58;;;;;;;10.50;3.20;;;10.60;99.90;;;;;;5151289;27;20047;-77
2023/05/01 01:44:39;;;;;;;9.10;3.05;;;10.60;99.90;;;;;;5132725;27;20055;-77
2023/05/01 01:47:10;;;;;;;8.75;3.33;;;10.60;99.90;;;;;;5132047;27;20058;-78
2023/05/01 01:49:40;;;;;;;10.57;3.72;;;10.60;99.90;;;;;;5114786;27;20047;-77
2023/05/01 01:52:08;;;;;;;10.02;2.75;;;10.60;99.90;;;;;;5113768;27;20043;-73
2023/05/01 01:54:42;;;;;;;7.88;3.22;;;10.60;99.90;;;;;;5132970;27;20051;-77
2023/05/01 01:57:11;;;;;;;8.90;3.42;;;10.60;99.90;;;;;;5131363;27;20116;-78
2023/05/01 01:59:40;;;;;;;5.78;2.95;;;10.60;99.90;;;;;;5132959;27;20051;-77
2023/05/01 02:02:07;;;;;;;7.10;3.08;;;10.60;99.90;;;;;;5131891;27;20043;-78
2023/05/01 02:04:35;;;;;;;9.25;3.17;;;10.50;99.90;;;;;;5132817;27;20043;-77
2023/05/01 02:07:02;;;;;;;5.88;2.85;;;10.60;99.90;;;;;;5131909;27;20075;-77
2023/05/01 02:09:30;;;;;;;10.00;3.13;;;10.60;99.90;;;;;;5120994;27;20043;-77
2023/05/01 02:12:01;;;;;;;7.28;3.10;;;10.60;99.90;;;;;;5113338;27;20054;-77
2023/05/01 02:14:28;;;;;;;5.68;2.78;;;10.50;99.90;;;;;;5132094;27;20046;-77
2023/05/01 02:16:55;;;;;;;6.15;2.63;;;10.50;99.90;;;;;;5132388;27;20066;-77
2023/05/01 02:19:22;;;;;;;10.00;3.20;;;10.50;99.90;;;;;;5131271;27;20536;-77
2023/05/01 02:21:49;;;;;;;7.97;3.22;;;10.40;99.90;;;;;;5137390;27;20484;-77
2023/05/01 02:24:15;;;;;;;8.43;3.45;;;10.40;99.90;;;;;;5134696;27;20043;-77
2023/05/01 02:26:42;;;;;;;;;;;10.30;99.90;;;;;;5131639;27;20047;-77
2023/05/01 02:29:09;;;;;;;9.75;3.30;;;10.20;99.90;;;;;;5122692;27;19923;-77
2023/05/01 02:31:34;;;;;;;10.32;3.88;;;10.20;99.90;;;;;;5141690;27;20030;-77
2023/05/01 02:34:00;;;;;;;7.25;3.33;;;10.20;99.90;;;;;;5136888;27;20507;-77
2023/05/01 02:36:26;;;;;;;5.68;2.90;;;10.20;99.90;;;;;;5129297;27;20046;-77
2023/05/01 02:38:55;;;;;;;;;;;10.10;99.90;;;;;;5102501;27;20074;-77
2023/05/01 02:41:23;;;;;;;8.40;3.40;;;10.10;99.90;;;;;;5141616;27;19963;-77
2023/05/01 02:43:55;;;;;;;6.45;3.13;;;10.00;99.90;;;;;;5145948;27;20051;-77
2023/05/01 02:46:24;;;;;;;7.70;3.38;;;10.00;99.90;;;;;;5132184;27;20069;-77
2023/05/01 02:48:50;;;;;;;10.70;3.33;;;10.00;99.90;;;;;;5136395;27;20051;-77
2023/05/01 02:51:18;;;;;;;7.80;3.00;;;10.00;99.90;;;;;;5096205;27;20051;-77
2023/05/01 02:53:45;;;;;;;6.90;3.03;;;9.90;99.90;;;;;;5145235;27;20485;-77
2023/05/01 02:56:11;;;;;;;10.93;3.90;;;9.90;99.90;;;;;;5151117;27;20134;-77
2023/05/01 02:58:37;;;;;;;6.00;3.20;;;9.90;99.90;;;;;;5152179;27;20155;-77
2023/05/01 03:01:04;;;;;;;6.82;3.15;;;9.80;99.90;;;;;;5152509;27;20392;-77
2023/05/01 03:03:29;;;;;;;9.15;3.70;;;9.80;99.90;;;;;;5151597;27;20133;-77
2023/05/01 03:05:56;;;;;;;7.57;3.28;;;9.80;99.90;;;;;;5151971;27;20145;-77
2023/05/01 03:08:22;;;;;;;8.48;3.28;;;9.80;99.90;;;;;;5130513;27;20046;-77
2023/05/01 03:10:47;;;;;;;9.73;3.38;;;9.80;99.90;;;;;;5143193;27;20503;-77
2023/05/01 03:13:13;;;;;;;8.10;3.30;;;9.80;99.90;;;;;;5130889;28;20090;-77
2023/05/01 03:15:40;;;;;;;9.15;3.30;;;9.80;99.90;;;;;;5131688;28;20084;-77
2023/05/01 03:18:05;;;;;;;10.27;4.00;;;9.80;99.90;;;;;;5130704;28;20129;-77
2023/05/01 03:20:31;;;;;;;6.55;3.30;;;9.70;99.90;;;;;;5130351;28;20134;-77
2023/05/01 03:22:58;;;;;;;6.55;3.13;;;9.70;99.90;;;;;;5148177;27;20042;-77
2023/05/01 03:25:24;;;;;;;9.63;3.30;;;9.70;99.90;;;;;;5150729;27;20047;-77
2023/05/01 03:27:50;;;;;;;11.75;4.68;;;9.70;99.90;;;;;;5152358;27;20077;-77
2023/05/01 03:30:15;;;;;;;;;;;9.70;99.90;;;;;;5149500;27;20085;-77
2023/05/01 03:32:41;;;;;;;10.00;4.18;;;9.60;99.90;;;;;;5133589;27;19970;-77
2023/05/01 03:35:08;;;;;;;6.43;3.05;;;9.60;99.90;;;;;;5151707;27;20483;-77
2023/05/01 03:37:34;;;;;;;10.88;3.80;;;9.60;99.90;;;;;;5120960;28;20070;-77
2023/05/01 03:40:00;;;;;;;12.05;4.72;;;9.60;99.90;;;;;;5113208;28;20103;-77
2023/05/01 03:42:25;;;;;;;10.75;3.67;;;9.60;99.90;;;;;;5130317;28;20118;-77
2023/05/01 03:44:51;;;;;;;10.45;3.70;;;9.60;99.90;;;;;;5113713;27;20066;-77
2023/05/01 03:47:20;;;;;;;8.45;3.20;;;9.60;99.90;;;;;;5149177;27;20098;-77
2023/05/01 03:49:48;;;;;;;8.52;3.72;;;9.60;99.90;;;;;;5156081;27;20042;-77
2023/05/01 03:52:14;;;;;;;8.40;3.55;;;9.60;99.90;;;;;;5155075;27;20517;-77
2023/05/01 03:54:40;;;;;;;9.65;4.20;;;9.60;99.90;;;;;;5118654;27;20118;-77
2023/05/01 03:57:06;;;;;;;10.13;3.40;;;9.60;99.90;;;;;;5117351;27;20035;-77
2023/05/01 03:59:31;;;;;;;9.23;3.17;;;9.60;99.90;;;;;;5155552;27;20039;-77
2023/05/01 04:01:57;;;;;;;7.13;3.05;;;9.60;99.90;;;;;;5137485;27;20053;-77
2023/05/01 04:04:23;;;;;;;9.48;3.47;;;9.60;99.90;;;;;;5132971;27;20082;-77
2023/05/01 04:06:48;;;;;;;11.02;4.18;;;9.60;99.90;;;;;;5134359;27;20039;-77
2023/05/01 04:09:15;;;;;;;10.40;3.90;;;9.60;99.90;;;;;;5110025;27;20058;-77
2023/05/01 04:11:40;;;;;;;9.32;3.25;;;9.50;99.90;;;;;;5154747;27;20126;-77
2023/05/01 04:14:06;;;;;;;7.90;3.53;;;9.60;99.90;;;;;;5155464;27;20122;-77
2023/05/01 04:16:32;;;;;;;9.40;3.33;;;9.60;99.90;;;;;;5154964;27;20042;-77
2023/05/01 04:18:57;;;;;;;8.80;3.38;;;9.60;99.90;;;;;;5155118;27;20086;-77
2023/05/01 04:21:23;;;;;;;12.10;3.83;;;9.70;99.90;;;;;;5154357;27;20054;-77
2023/05/01 04:23:49;;;;;;;9.07;3.28;;;9.70;99.90;;;;;;5139782;27;20051;-78
2023/05/01 04:26:15;;;;;;;8.07;3.22;;;9.70;99.90;;;;;;5150875;27;20050;-78
2023/05/01 04:28:41;;;;;;;8.35;3.63;;;9.70;99.90;;;;;;5136999;27;20050;-77
2023/05/01 04:31:07;;;;;;;12.13;3.97;;;9.80;99.90;;;;;;5155288;27;20038;-77
2023/05/01 04:33:32;;;;;;;7.10;3.53;;;9.80;99.90;;;;;;5140949;27;20049;-77
2023/05/01 04:35:58;;;;;;;11.60;4.10;;;9.80;99.90;;;;;;5136261;27;20054;-77
2023/05/01 04:38:24;;;;;;;9.35;3.20;;;9.80;99.90;;;;;;5127288;27;20044;-77
2023/05/01 04:40:49;;;;;;;7.95;3.55;;;9.70;99.90;;;;;;5115455;27;20092;-78
2023/05/01 04:43:15;;;;;;;9.85;3.95;;;9.80;99.90;;;;;;5115767;27;20058;-78
2023/05/01 04:45:41;;;;;;;6.45;3.38;;;9.80;99.90;;;;;;5136430;27;20047;-77
2023/05/01 04:48:07;;;;;;;9.90;3.53;;;9.80;99.90;;;;;;5152977;27;20129;-77
2023/05/01 04:50:32;;;;;;;8.48;3.58;;;9.70;99.90;;;;;;5153744;27;20043;-77
2023/05/01 04:52:58;;;;;;;8.82;3.67;;;9.80;99.90;;;;;;5136518;27;20107;-77
2023/05/01 04:55:24;;;;;;;8.80;3.60;;;9.80;99.90;;;;;;5153330;27;20046;-77
2023/05/01 04:57:50;;;;;;;10.95;3.95;;;9.80;99.90;;;;;;5153920;27;20047;-77
2023/05/01 05:00:17;;;;;;;9.05;3.85;;;9.80;99.90;;;;;;5136024;27;20082;-78
2023/05/01 05:02:45;;;;;;;9.88;3.83;;;9.80;99.90;;;;;;5154306;27;20387;-77
2023/05/01 05:05:10;;;;;;;9.75;4.30;;;9.80;99.90;;;;;;5154005;27;20051;-77
2023/05/01 05:07:36;;;;;;;11.20;4.15;;;9.80;99.90;;;;;;5133962;27;20041;-77
2023/05/01 05:10:02;;;;;;;10.88;3.55;;;9.80;99.90;;;;;;5145391;27;20050;-77
2023/05/01 05:12:28;;;;;;;8.13;3.90;;;9.90;99.90;;;;;;5132754;27;20488;-77
2023/05/01 05:14:53;;;;;;;10.38;4.07;;;9.90;99.90;;;;;;5133867;27;20043;-77
2023/05/01 05:17:19;;;;;;;9.00;4.05;;;10.00;99.90;;;;;;5134217;27;20058;-77
2023/05/01 05:19:45;;;;;;;10.07;3.35;;;10.00;99.90;;;;;;5135983;27;20050;-77
2023/05/01 05:22:14;;;;;;;10.40;4.00;;;10.10;99.90;;;;;;5153588;27;20038;-77
2023/05/01 05:24:40;;;;;;;7.88;3.60;;;10.10;99.90;;;;;;5153778;27;20103;-77
2023/05/01 05:27:06;;;;;;;7.97;3.42;;;10.10;99.90;;;;;;5153353;27;20046;-77
2023/05/01 05:29:31;;;;;;;9.23;3.25;;;10.10;99.90;;;;;;5135145;27;20455;-77
2023/05/01 05:31:58;;;;;;;8.48;3.58;;;10.10;99.90;;;;;;5152201;27;20058;-77
2023/05/01 05:34:24;;;;;;;8.93;3.80;;;10.10;99.90;;;;;;5146396;27;20058;-77
2023/05/01 05:36:50;;;;;;;8.32;3.63;;;10.20;99.90;;;;;;5132582;27;20043;-78
2023/05/01 05:39:16;;;;;;;10.02;3.70;;;10.20;99.90;;;;;;5133609;27;20391;-77
2023/05/01 05:41:42;;;;;;;8.93;3.28;;;10.30;99.90;;;;;;5134209;27;20122;-77
2023/05/01 05:44:07;;;;;;;10.45;3.80;;;10.30;99.90;;;;;;5135419;27;20045;-77
2023/05/01 05:46:33;;;;;;;9.18;4.22;;;10.40;99.90;;;;;;5149930;27;20433;-77
2023/05/01 05:48:59;;;;;;;8.52;3.40;;;10.40;99.90;;;;;;5151283;27;20050;-77
2023/05/01 05:51:25;;;;;;;9.00;3.45;;;10.40;99.90;;;;;;5148099;27;20630;-77
2023/05/01 05:53:50;;;;;;;8.48;3.63;;;10.50;99.90;;;;;;5136276;27;20127;-77
2023/05/01 05:56:16;;;;;;;11.93;3.40;;;10.50;99.90;;;;;;5137022;27;20491;-75
2023/05/01 05:58:42;;;;;;;8.20;3.30;;;10.60;99.90;;;;;;5146582;27;20047;-75
2023/05/01 06:01:08;;;;;;;8.15;3.72;;;10.70;99.90;;;;;;5153628;27;20043;-75
2023/05/01 06:03:34;;;;;;;9.20;4.18;;;10.70;99.90;;;;;;5152184;27;20499;-75
2023/05/01 06:06:01;;;;;;;7.85;3.53;;;10.80;99.90;;;;;;5131262;27;20124;-86
2023/05/01 06:08:26;;;;;;;11.10;4.18;;;10.80;99.90;;;;;;5113704;27;20054;-75
2023/05/01 06:10:52;;;;;;;10.40;3.80;;;10.80;99.90;;;;;;5131636;27;20035;-75
2023/05/01 06:13:17;;;;;;;9.38;4.18;;;10.90;99.90;;;;;;5134311;27;20148;-75
2023/05/01 06:15:44;;;;;;;9.57;4.20;;;10.90;99.90;;;;;;5134389;27;20480;-75
2023/05/01 06:18:10;;;;;;;15.25;4.25;;;10.90;99.90;;;;;;5138673;27;20062;-76
2023/05/01 06:20:37;;;;;;;12.75;4.10;;;11.00;99.90;;;;;;5123928;27;20841;-75
2023/05/01 06:23:03;;;;;;;10.10;3.75;;;11.00;99.90;;;;;;5133264;27;20043;-75
2023/05/01 06:25:28;;;;;;;11.40;3.75;;;11.10;99.90;;;;;;5113195;27;20058;-76
2023/05/01 06:27:54;;;;;;;6.88;3.55;;;11.10;99.90;;;;;;5132142;27;20547;-75
2023/05/01 06:30:20;;;;;;;8.38;3.47;;;11.20;99.90;;;;;;5132311;27;20035;-75
2023/05/01 06:32:46;;;;;;;8.52;3.65;;;11.20;99.90;;;;;;5112834;27;20511;-75
2023/05/01 06:35:12;;;;;;;8.15;3.75;;;11.30;99.90;;;;;;5113757;27;20126;-75
2023/05/01 06:37:38;;;;;;;11.45;3.75;;;11.40;99.90;;;;;;5123865;27;20484;-76
2023/05/01 06:40:06;;;;;;;11.38;3.88;;;11.40;99.90;;;;;;5132923;27;20046;-76
2023/05/01 06:42:32;;;;;;;11.68;3.42;;;11.40;99.90;;;;;;5140596;27;20399;-74
2023/05/01 06:44:57;;;;;;;9.15;3.40;;;11.40;99.90;;;;;;5135671;27;20046;-73
2023/05/01 06:47:23;;;;;;;9.05;3.38;;;11.40;99.90;;;;;;5148421;27;20051;-75
2023/05/01 06:49:49;;;;;;;12.05;4.00;;;11.50;99.90;;;;;;5133969;27;20054;-70
2023/05/01 06:52:14;;;;;;;10.77;4.60;;;11.60;99.90;;;;;;5116286;27;20047;-70
2023/05/01 06:54:40;;;;;;;15.63;4.38;;;11.60;99.90;;;;;;5151991;27;20091;-74
2023/05/01 06:57:06;;;;;;;11.80;3.53;;;11.60;99.90;;;;;;5140450;27;20053;-76
2023/05/01 06:59:32;;;;;;;10.27;3.47;;;11.60;99.90;;;;;;5144295;27;20047;-75
2023/05/01 07:01:57;;;;;;;11.38;3.53;;;11.60;99.90;;;;;;5115544;27;20047;-75
2023/05/01 07:04:23;;;;;;;11.13;4.05;;;11.60;99.90;;;;;;5095781;27;20039;-75
2023/05/01 07:06:49;;;;;;;8.60;3.42;;;11.60;99.90;;;;;;5111526;28;20051;-75
2023/05/01 07:09:14;;;;;;;12.48;5.47;;;11.70;99.90;;;;;;5151185;27;20039;-75
2023/05/01 07:11:41;;;;;;;10.75;3.95;;;11.70;99.90;;;;;;5137062;27;20392;-76
2023/05/01 07:14:07;;;;;;;8.82;3.60;;;11.80;99.90;;;;;;5130902;27;20491;-76
2023/05/01 07:16:33;;;;;;;8.98;4.05;;;11.90;99.90;;;;;;5130450;27;20144;-75
2023/05/01 07:18:59;;;;;;;8.55;3.50;;;12.00;99.90;;;;;;5136670;27;20056;-76
2023/05/01 07:21:25;;;;;;;12.48;3.88;;;12.10;99.90;;;;;;5145167;27;20054;-74
2023/05/01 07:23:50;;;;;;;24.67;4.93;;;12.20;99.90;;;;;;5135437;27;20047;-79
2023/05/01 07:26:16;;;;;;;8.90;3.95;;;12.20;99.90;;;;;;5120397;27;20041;-77
2023/05/01 07:28:42;;;;;;;;;;;12.20;99.90;;;;;;5129174;27;20399;-77
2023/05/01 07:31:11;;;;;;;9.27;3.63;;;12.20;99.90;;;;;;5146376;27;19926;-77
2023/05/01 07:33:37;;;;;;;7.15;3.25;;;12.30;99.90;;;;;;5116191;27;20039;-72
2023/05/01 07:36:03;;;;;;;10.93;4.10;;;12.30;99.90;;;;;;5134865;27;20073;-81
2023/05/01 07:38:29;;;;;;;10.05;3.90;;;12.30;99.90;;;;;;5143737;27;20251;-83
2023/05/01 07:40:55;;;;;;;10.55;3.70;;;12.40;99.90;;;;;;5105720;27;20046;-72
2023/05/01 07:43:22;;;;;;;10.38;4.18;;;12.50;99.90;;;;;;5127892;27;20065;-70
2023/05/01 07:45:56;;;;;;;;;;;12.50;99.90;;;;;;5137465;27;20112;-70
2023/05/01 07:48:21;;;;;;;11.73;4.03;;;12.60;99.90;;;;;;5134707;27;19950;-70
2023/05/01 07:50:47;;;;;;;10.18;3.45;;;12.60;99.90;;;;;;5137322;27;20491;-71
2023/05/01 07:53:13;;;;;;;9.77;3.53;;;12.70;99.90;;;;;;5144823;27;20545;-74
2023/05/01 07:55:39;;;;;;;10.57;3.70;;;12.80;99.90;;;;;;5129310;27;20046;-80
2023/05/01 07:58:05;;;;;;;7.75;3.28;;;12.80;99.90;;;;;;5106386;27;20042;-75
2023/05/01 08:00:30;;;;;;;9.48;4.10;;;12.90;99.90;;;;;;5134713;27;20372;-73
2023/05/01 08:02:56;;;;;;;14.57;4.10;;;12.90;99.90;;;;;;5143448;27;20125;-72
2023/05/01 08:05:22;;;;;;;8.27;3.40;;;13.00;99.90;;;;;;5129731;27;20089;-73
2023/05/01 08:07:47;;;;;;;8.05;3.15;;;13.00;99.90;;;;;;5134005;27;20122;-75
2023/05/01 08:10:14;;;;;;;10.48;3.92;;;13.00;99.90;;;;;;5133862;27;20088;-76
2023/05/01 08:12:40;;;;;;;9.30;4.07;;;13.10;99.90;;;;;;5143923;27;20050;-77
2023/05/01 08:15:06;;;;;;;9.93;4.15;;;13.10;99.90;;;;;;5119941;27;20453;-77
2023/05/01 08:17:33;;;;;;;8.93;3.60;;;13.10;99.90;;;;;;5125636;27;20560;-72
2023/05/01 08:19:59;;;;;;;11.60;4.13;;;13.20;99.90;;;;;;5137848;27;20073;-72
2023/05/01 08:22:25;;;;;;;;;;;13.20;99.90;;;;;;5134269;27;20043;-75
2023/05/01 08:24:51;;;;;;;8.38;3.33;;;13.30;99.90;;;;;;5124810;27;19919;-72
2023/05/01 08:27:17;;;;;;;8.40;3.40;;;13.30;99.90;;;;;;5133189;27;20039;-73
2023/05/01 08:29:42;;;;;;;9.30;3.83;;;13.30;99.90;;;;;;5153970;27;20529;-71
2023/05/01 08:32:08;;;;;;;7.88;3.38;;;13.30;99.90;;;;;;5154677;27;20082;-75
2023/05/01 08:34:35;;;;;;;11.00;4.00;;;13.40;99.90;;;;;;5116597;27;20050;-67
2023/05/01 08:37:01;;;;;;;8.48;3.75;;;13.40;99.90;;;;;;5139109;27;20559;-72
2023/05/01 08:39:26;;;;;;;7.43;3.90;;;13.60;99.90;;;;;;5155296;27;20054;-66
2023/05/01 08:41:52;;;;;;;11.05;3.65;;;13.70;99.90;;;;;;5135156;27;20136;-83
2023/05/01 08:44:24;;;;;;;14.25;4.30;;;13.80;99.90;;;;;;5154992;27;20043;-72
2023/05/01 08:47:06;;;;;;;8.85;3.83;;;13.90;99.90;;;;;;5149798;27;20066;-71
2023/05/01 08:49:35;;;;;;;9.85;4.60;;;14.00;99.90;;;;;;5143550;27;20058;-71
2023/05/01 08:52:01;;;;;;;11.25;4.85;;;14.10;99.90;;;;;;5150009;27;20043;-73
2023/05/01 08:54:30;;;;;;;11.98;3.92;;;14.10;99.90;;;;;;5154946;27;20042;-72
2023/05/01 08:57:02;;;;;;;10.43;3.92;;;14.10;99.90;;;;;;5143786;27;20055;-75
2023/05/01 08:59:30;;;;;;;12.32;4.70;;;14.20;99.90;;;;;;5134034;27;20074;-73
2023/05/01 09:01:57;;;;;;;11.10;3.80;;;14.20;99.90;;;;;;5137484;27;20034;-76
2023/05/01 09:04:23;;;;;;;6.68;3.53;;;14.30;99.90;;;;;;5140938;27;20043;-74
2023/05/01 09:06:49;;;;;;;10.60;3.88;;;14.30;99.90;;;;;;5113708;27;20080;-74
2023/05/01 09:09:15;;;;;;;;;;;14.40;99.90;;;;;;5135430;27;20191;-75
2023/05/01 09:11:43;;;;;;;9.70;4.30;;;14.50;99.90;;;;;;5139993;27;20017;-75
2023/05/01 09:14:09;;;;;;;10.65;4.10;;;14.50;99.90;;;;;;5146006;27;20133;-74
2023/05/01 09:16:35;;;;;;;7.35;3.20;;;14.50;99.90;;;;;;5098335;27;20109;-74
2023/05/01 09:19:00;;;;;;;9.80;4.10;;;14.60;99.90;;;;;;5132800;27;20039;-74
2023/05/01 09:21:28;;;;;;;7.22;3.78;;;14.70;99.90;;;;;;5114628;27;20047;-75
2023/05/01 09:23:53;;;;;;;7.82;3.67;;;14.70;99.90;;;;;;5133092;27;20047;-74
2023/05/01 09:26:20;;;;;;;7.28;3.47;;;14.80;99.90;;;;;;5132569;27;20051;-73
2023/05/01 09:28:47;;;;;;;8.57;3.35;;;14.80;99.90;;;;;;5134710;27;20411;-74
2023/05/01 09:31:28;;;;;;;10.40;3.97;;;14.90;99.90;;;;;;5152263;27;20410;-75
2023/05/01 09:33:56;;;;;;;7.13;3.28;;;14.90;99.90;;;;;;5147557;27;20175;-72
2023/05/01 09:36:23;;;;;;;9.63;3.92;;;14.90;99.90;;;;;;5134929;27;20086;-73
2023/05/01 09:38:50;;;;;;;11.25;3.95;;;14.90;99.90;;;;;;5148952;27;20119;-72
2023/05/01 09:41:19;;;;;;;8.52;3.20;;;15.00;99.90;;;;;;5132408;27;20043;-72
2023/05/01 09:43:53;;;;;;;9.10;4.05;;;15.00;99.90;;;;;;5114149;27;20054;-74
2023/05/01 09:46:21;;;;;;;7.38;2.70;;;15.10;99.90;;;;;;5132373;27;20067;-73
2023/05/01 09:48:57;;;;;;;10.45;3.53;;;15.30;99.90;;;;;;5131880;27;20051;-75
2023/05/01 09:51:27;;;;;;;10.00;3.83;;;15.40;99.90;;;;;;5119575;27;20468;-70
2023/05/01 09:53:57;;;;;;;8.52;2.95;;;15.50;99.90;;;;;;5132514;27;20099;-76
2023/05/01 09:56:25;;;;;;;8.00;3.10;;;15.50;99.90;;;;;;5140369;27;20411;-75
2023/05/01 09:58:52;;;;;;;8.93;3.25;;;15.60;99.90;;;;;;5132355;27;20135;-76
2023/05/01 10:01:36;;;;;;;6.60;2.70;;;15.70;99.90;;;;;;5144646;27;20030;-72
2023/05/01 10:04:02;;;;;;;8.40;2.78;;;15.70;99.90;;;;;;5131423;27;20703;-73
2023/05/01 10:06:28;;;;;;;6.60;2.55;;;15.80;99.90;;;;;;5131394;27;20143;-71
2023/05/01 10:08:53;;;;;;;9.35;3.10;;;15.90;99.90;;;;;;5113565;27;20074;-71
2023/05/01 10:11:20;;;;;;;;;;;16.00;99.90;;;;;;5132758;27;20043;-72
2023/05/01 10:14:05;;;;;;;5.88;2.17;;;16.00;99.90;;;;;;5130556;27;20006;-70
2023/05/01 10:16:33;;;;;;;11.43;2.92;;;16.10;99.90;;;;;;5131630;27;20143;-71
2023/05/01 10:18:59;;;;;;;8.35;2.40;;;16.10;99.90;;;;;;5128400;27;20122;-72
2023/05/01 10:21:26;;;;;;;;;;;16.10;99.90;;;;;;5132187;27;20051;-70
2023/05/01 10:23:53;;;;;;;6.55;2.25;;;16.10;98.00;;;;;;5131978;27;19942;-71
2023/05/01 10:26:19;;;;;;;5.38;2.15;;;16.20;99.90;;;;;;5130619;27;20568;-72
2023/05/01 10:28:48;;;;;;;7.85;2.50;;;16.20;99.90;;;;;;5145383;27;20122;-72
2023/05/01 10:31:15;;;;;;;9.30;2.38;;;16.30;99.90;;;;;;5152219;27;20039;-77
2023/05/01 10:33:42;;;;;;;4.78;2.28;;;16.30;99.90;;;;;;5150055;27;20749;-77
2023/05/01 10:36:19;;;;;;;6.47;2.90;;;16.40;99.90;;;;;;5151612;27;20042;-77
2023/05/01 10:38:47;;;;;;;7.90;2.72;;;16.40;99.90;;;;;;5115668;27;20092;-74
2023/05/01 10:41:16;;;;;;;11.27;3.95;;;16.50;99.90;;;;;;5129739;27;20402;-79
2023/05/01 10:43:42;;;;;;;5.38;2.97;;;16.60;99.90;;;;;;5113177;27;20054;-76
2023/05/01 10:46:17;;;;;;;7.63;2.40;;;16.60;99.90;;;;;;5130999;27;20057;-80
2023/05/01 10:48:43;;;;;;;4.97;1.25;;;16.60;99.60;;;;;;5135955;27;20058;-75
2023/05/01 10:51:14;;;;;;;2.13;1.27;;;16.70;97.80;;;;;;5130497;27;20039;-75
2023/05/01 10:53:41;;;;;;;3.13;1.83;;;16.80;96.00;;;;;;5121252;27;20054;-74
2023/05/01 10:56:25;;;;;;;5.40;1.48;;;16.90;92.90;;;;;;5145876;27;20049;-75
2023/05/01 10:58:51;;;;;;;2.58;1.27;;;17.10;90.90;;;;;;5138154;27;20377;-74
2023/05/01 11:01:38;;;;;;;6.07;2.10;;;17.10;87.90;;;;;;5143450;27;20037;-73
2023/05/01 11:04:27;;;;;;;4.72;1.77;;;17.20;83.30;;;;;;5132072;27;20112;-74
2023/05/01 11:07:06;;;;;;;6.70;2.38;;;17.40;88.30;;;;;;5138432;27;20057;-74
2023/05/01 11:09:58;;;;;;;4.28;1.60;;;17.50;90.10;;;;;;5126966;27;20043;-73
2023/05/01 11:12:45;;;;;;;5.45;1.70;;;17.70;87.90;;;;;;5120875;27;20062;-74
2023/05/01 11:15:24;;;;;;;5.22;1.85;;;17.80;88.50;;;;;;5130590;27;20039;-74
2023/05/01 11:17:51;;;;;;;3.70;1.60;;;17.80;90.30;;;;;;5137628;27;20511;-73
2023/05/01 11:20:26;;;;;;;3.97;1.98;;;17.90;87.20;;;;;;5135316;27;20039;-73
2023/05/01 11:22:53;;;;;;;7.75;2.50;;;18.20;85.50;;;;;;5145926;27;20050;-74
2023/05/01 11:25:24;;;;;;;6.28;1.58;;;18.40;85.30;;;;;;5139300;27;20480;-74
2023/05/01 11:27:55;;;;;;;5.22;2.42;;;18.70;85.70;;;;;;5131041;27;20086;-73
2023/05/01 11:30:22;;;;;;;6.32;2.10;;;19.20;86.80;;;;;;5134679;27;20132;-74
2023/05/01 11:32:49;;;;;;;8.75;2.17;;;19.80;87.50;;;;;;5137728;27;20571;-74
2023/05/01 11:35:27;;;;;;;4.53;1.70;;;20.60;82.50;;;;;;5136191;27;20070;-74
2023/05/01 11:37:56;;;;;;;5.90;2.03;;;21.10;76.70;;;;;;5121071;27;20130;-74
2023/05/01 11:40:33;;;;;;;4.85;1.80;;;21.70;78.90;;;;;;5144979;27;20046;-75
2023/05/01 11:43:06;;;;;;;3.42;1.40;;;22.30;69.30;;;;;;5128502;27;20049;-76
2023/05/01 11:45:33;;;;;;;5.68;2.00;;;22.90;73.50;;;;;;5138225;27;20038;-75
2023/05/01 11:48:01;;;;;;;4.85;1.70;;;23.40;72.40;;;;;;5130099;28;20132;-76
2023/05/01 11:50:34;;;;;;;4.10;1.88;;;23.80;68.70;;;;;;5129315;28;20162;-75
2023/05/01 11:53:01;;;;;;;5.18;2.15;;;24.20;61.30;;;;;;5137800;27;20038;-75
2023/05/01 11:55:31;;;;;;;3.90;2.28;;;24.50;61.20;;;;;;5139192;27;20042;-72
2023/05/01 11:57:58;;;;;;;5.10;2.45;;;24.70;59.00;;;;;;5150571;27;20035;-75
2023/05/01 12:00:29;;;;;;;5.80;2.50;;;25.00;59.10;;;;;;5135675;27;20058;-75
2023/05/01 12:03:00;;;;;;;5.50;1.90;;;25.30;58.40;;;;;;5139975;27;20042;-75
2023/05/01 12:05:27;;;;;;;3.88;2.15;;;25.70;58.70;;;;;;5132703;27;20042;-74
2023/05/01 12:08:10;;;;;;;4.22;1.83;;;25.90;57.80;;;;;;5137419;27;20133;-75
2023/05/01 12:10:36;;;;;;;5.55;1.85;;;26.00;56.20;;;;;;5154862;27;20049;-75
2023/05/01 12:13:04;;;;;;;3.85;1.50;;;25.80;56.20;;;;;;5154632;27;20057;-78
2023/05/01 12:15:33;;;;;;;5.05;2.20;;;25.70;55.20;;;;;;5134942;27;20054;-75
2023/05/01 12:17:58;;;;;;;3.45;1.50;;;25.40;53.30;;;;;;5115980;27;20099;-75
2023/05/01 12:20:39;;;;;;;3.58;1.80;;;25.20;52.80;;;;;;5115735;27;20047;-75
2023/05/01 12:23:06;;;;;;;2.80;1.45;;;25.20;51.20;;;;;;5120269;27;20152;-77
2023/05/01 12:25:33;;;;;;;5.65;1.60;;;25.10;52.80;;;;;;5154614;27;20046;-75
2023/05/01 12:28:18;;;;;;;4.85;1.63;;;25.20;52.90;;;;;;5145039;27;20055;-74
2023/05/01 12:30:48;;;;;;;3.78;1.70;;;25.10;50.40;;;;;;5145322;27;20050;-75
2023/05/01 12:33:13;;;;;;;4.32;2.10;;;25.10;52.40;;;;;;5154403;27;20154;-75
2023/05/01 12:35:40;;;;;;;2.42;1.40;;;25.00;52.00;;;;;;5154859;27;20517;-75
2023/05/01 12:38:17;;;;;;;2.40;1.40;;;24.80;51.60;;;;;;5154305;27;20491;-74
2023/05/01 12:40:54;;;;;;;4.82;1.60;;;24.50;50.40;;;;;;5129949;27;20055;-74
2023/05/01 12:43:34;;;;;;;3.83;1.48;;;24.40;51.30;;;;;;5133871;27;20591;-75
2023/05/01 12:46:00;;;;;;;3.72;1.48;;;24.80;50.80;;;;;;5117180;27;20088;-73
2023/05/01 12:48:26;;;;;;;4.35;1.60;;;25.40;51.60;;;;;;5152561;27;20051;-73
2023/05/01 12:50:55;;;;;;;3.38;1.42;;;25.80;50.80;;;;;;5154421;27;20043;-73
2023/05/01 12:53:26;;;;;;;7.10;1.63;;;26.10;49.60;;;;;;5136026;27;20058;-75
2023/05/01 12:55:54;;;;;;;3.47;1.15;;;26.30;48.70;;;;;;5153803;27;20129;-74